sensor_id;sensor_type;location;lat;lon;timestamp;P1;durP1;ratioP1;P2;durP2;ratioP2
74660;SDS011;63191;39.566;2.654;2023-04-24T00:00:40;19.10;;;6.80;;
74660;SDS011;63191;39.566;2.654;2023-04-24T00:03:06;19.20;;;7.20;;
74660;SDS011;63191;39.566;2.654;2023-04-24T00:05:33;21.90;;;9.20;;
74660;SDS011;63191;39.566;2.654;2023-04-24T00:08:00;22.10;;;9.10;;
74660;SDS011;63191;39.566;2.654;2023-04-24T00:10:26;22.00;;;8.50;;
74660;SDS011;63191;39.566;2.654;2023-04-24T00:12:51;18.80;;;8.30;;
74660;SDS011;63191;39.566;2.654;2023-04-24T00:15:19;23.90;;;10.40;;
74660;SDS011;63191;39.566;2.654;2023-04-24T00:17:46;21.20;;;9.30;;
74660;SDS011;63191;39.566;2.654;2023-04-24T00:20:12;19.30;;;8.40;;
74660;SDS011;63191;39.566;2.654;2023-04-24T00:22:40;21.50;;;9.30;;
74660;SDS011;63191;39.566;2.654;2023-04-24T00:25:06;16.60;;;7.90;;
74660;SDS011;63191;39.566;2.654;2023-04-24T00:27:33;22.70;;;11.40;;
74660;SDS011;63191;39.566;2.654;2023-04-24T00:30:00;28.00;;;12.40;;
74660;SDS011;63191;39.566;2.654;2023-04-24T00:32:27;25.00;;;12.20;;
74660;SDS011;63191;39.566;2.654;2023-04-24T00:34:52;26.60;;;12.20;;
74660;SDS011;63191;39.566;2.654;2023-04-24T00:37:19;22.30;;;10.70;;
74660;SDS011;63191;39.566;2.654;2023-04-24T00:39:45;25.30;;;12.00;;
74660;SDS011;63191;39.566;2.654;2023-04-24T00:42:11;25.60;;;12.50;;
74660;SDS011;63191;39.566;2.654;2023-04-24T00:44:37;31.50;;;15.20;;
74660;SDS011;63191;39.566;2.654;2023-04-24T00:47:04;28.40;;;12.70;;
74660;SDS011;63191;39.566;2.654;2023-04-24T00:49:29;27.10;;;11.80;;
74660;SDS011;63191;39.566;2.654;2023-04-24T00:51:55;26.20;;;12.10;;
74660;SDS011;63191;39.566;2.654;2023-04-24T00:54:24;20.30;;;9.10;;
74660;SDS011;63191;39.566;2.654;2023-04-24T00:56:50;13.90;;;6.70;;
74660;SDS011;63191;39.566;2.654;2023-04-24T00:59:17;14.90;;;7.80;;
74660;SDS011;63191;39.566;2.654;2023-04-24T01:01:44;19.40;;;8.60;;
74660;SDS011;63191;39.566;2.654;2023-04-24T01:04:12;20.50;;;8.60;;
74660;SDS011;63191;39.566;2.654;2023-04-24T01:06:42;20.80;;;8.20;;
74660;SDS011;63191;39.566;2.654;2023-04-24T01:09:09;16.40;;;7.30;;
74660;SDS011;63191;39.566;2.654;2023-04-24T01:11:37;15.60;;;7.20;;
74660;SDS011;63191;39.566;2.654;2023-04-24T01:14:03;13.10;;;6.10;;
74660;SDS011;63191;39.566;2.654;2023-04-24T01:16:30;16.60;;;8.00;;
74660;SDS011;63191;39.566;2.654;2023-04-24T01:18:55;16.20;;;8.70;;
74660;SDS011;63191;39.566;2.654;2023-04-24T01:21:23;15.60;;;7.40;;
74660;SDS011;63191;39.566;2.654;2023-04-24T01:23:53;15.30;;;7.10;;
74660;SDS011;63191;39.566;2.654;2023-04-24T01:26:19;14.20;;;6.40;;
74660;SDS011;63191;39.566;2.654;2023-04-24T01:28:46;18.40;;;6.60;;
74660;SDS011;63191;39.566;2.654;2023-04-24T01:31:12;16.10;;;6.30;;
74660;SDS011;63191;39.566;2.654;2023-04-24T01:33:37;14.60;;;5.80;;
74660;SDS011;63191;39.566;2.654;2023-04-24T01:36:03;14.10;;;5.90;;
74660;SDS011;63191;39.566;2.654;2023-04-24T01:38:30;13.10;;;5.90;;
74660;SDS011;63191;39.566;2.654;2023-04-24T01:40:57;13.40;;;5.40;;
74660;SDS011;63191;39.566;2.654;2023-04-24T01:43:25;13.00;;;5.70;;
74660;SDS011;63191;39.566;2.654;2023-04-24T01:45:51;16.30;;;6.00;;
74660;SDS011;63191;39.566;2.654;2023-04-24T01:48:16;13.10;;;5.70;;
74660;SDS011;63191;39.566;2.654;2023-04-24T01:50:42;11.50;;;5.20;;
74660;SDS011;63191;39.566;2.654;2023-04-24T01:53:08;15.40;;;6.00;;
74660;SDS011;63191;39.566;2.654;2023-04-24T01:55:35;14.00;;;5.80;;
74660;SDS011;63191;39.566;2.654;2023-04-24T01:58:01;13.30;;;5.70;;
74660;SDS011;63191;39.566;2.654;2023-04-24T02:00:27;13.90;;;5.90;;
74660;SDS011;63191;39.566;2.654;2023-04-24T02:02:53;12.40;;;5.40;;
74660;SDS011;63191;39.566;2.654;2023-04-24T02:05:19;15.80;;;6.00;;
74660;SDS011;63191;39.566;2.654;2023-04-24T02:07:45;16.40;;;5.80;;
74660;SDS011;63191;39.566;2.654;2023-04-24T02:10:13;15.90;;;6.40;;
74660;SDS011;63191;39.566;2.654;2023-04-24T02:12:39;15.00;;;5.60;;
74660;SDS011;63191;39.566;2.654;2023-04-24T02:15:05;13.30;;;5.20;;
74660;SDS011;63191;39.566;2.654;2023-04-24T02:17:31;14.10;;;5.80;;
74660;SDS011;63191;39.566;2.654;2023-04-24T02:19:57;12.80;;;5.80;;
74660;SDS011;63191;39.566;2.654;2023-04-24T02:22:23;15.00;;;6.10;;
74660;SDS011;63191;39.566;2.654;2023-04-24T02:24:48;13.80;;;5.30;;
74660;SDS011;63191;39.566;2.654;2023-04-24T02:27:14;15.10;;;6.60;;
74660;SDS011;63191;39.566;2.654;2023-04-24T02:29:40;15.90;;;6.30;;
74660;SDS011;63191;39.566;2.654;2023-04-24T02:32:06;17.00;;;6.00;;
74660;SDS011;63191;39.566;2.654;2023-04-24T02:34:31;13.50;;;5.40;;
74660;SDS011;63191;39.566;2.654;2023-04-24T02:36:57;14.80;;;5.90;;
74660;SDS011;63191;39.566;2.654;2023-04-24T02:39:23;12.70;;;6.00;;
74660;SDS011;63191;39.566;2.654;2023-04-24T02:41:48;13.50;;;5.80;;
74660;SDS011;63191;39.566;2.654;2023-04-24T02:44:14;13.20;;;5.40;;
74660;SDS011;63191;39.566;2.654;2023-04-24T02:46:40;13.70;;;5.40;;
74660;SDS011;63191;39.566;2.654;2023-04-24T02:49:07;13.50;;;5.20;;
74660;SDS011;63191;39.566;2.654;2023-04-24T02:51:33;11.40;;;5.10;;
74660;SDS011;63191;39.566;2.654;2023-04-24T02:53:58;12.10;;;5.20;;
74660;SDS011;63191;39.566;2.654;2023-04-24T02:56:24;10.70;;;4.90;;
74660;SDS011;63191;39.566;2.654;2023-04-24T02:58:50;12.40;;;5.90;;
74660;SDS011;63191;39.566;2.654;2023-04-24T03:01:16;10.00;;;4.50;;
74660;SDS011;63191;39.566;2.654;2023-04-24T03:03:44;12.40;;;5.30;;
74660;SDS011;63191;39.566;2.654;2023-04-24T03:06:09;13.70;;;5.70;;
74660;SDS011;63191;39.566;2.654;2023-04-24T03:08:36;11.50;;;5.20;;
74660;SDS011;63191;39.566;2.654;2023-04-24T03:11:02;14.70;;;6.20;;
74660;SDS011;63191;39.566;2.654;2023-04-24T03:13:27;12.70;;;5.60;;
74660;SDS011;63191;39.566;2.654;2023-04-24T03:15:53;13.20;;;5.20;;
74660;SDS011;63191;39.566;2.654;2023-04-24T03:18:19;16.30;;;6.00;;
74660;SDS011;63191;39.566;2.654;2023-04-24T03:20:48;14.10;;;5.20;;
74660;SDS011;63191;39.566;2.654;2023-04-24T03:23:14;15.10;;;5.40;;
74660;SDS011;63191;39.566;2.654;2023-04-24T03:25:40;14.50;;;5.50;;
74660;SDS011;63191;39.566;2.654;2023-04-24T03:28:08;12.10;;;5.20;;
74660;SDS011;63191;39.566;2.654;2023-04-24T03:30:34;13.90;;;5.30;;
74660;SDS011;63191;39.566;2.654;2023-04-24T03:33:00;11.80;;;5.60;;
74660;SDS011;63191;39.566;2.654;2023-04-24T03:35:26;13.20;;;5.20;;
74660;SDS011;63191;39.566;2.654;2023-04-24T03:37:52;13.30;;;5.60;;
74660;SDS011;63191;39.566;2.654;2023-04-24T03:40:17;13.20;;;5.70;;
74660;SDS011;63191;39.566;2.654;2023-04-24T03:42:43;14.30;;;5.70;;
74660;SDS011;63191;39.566;2.654;2023-04-24T03:45:09;13.70;;;5.70;;
74660;SDS011;63191;39.566;2.654;2023-04-24T03:47:36;12.20;;;6.20;;
74660;SDS011;63191;39.566;2.654;2023-04-24T03:50:02;15.20;;;5.40;;
74660;SDS011;63191;39.566;2.654;2023-04-24T03:52:28;16.70;;;6.10;;
74660;SDS011;63191;39.566;2.654;2023-04-24T03:54:54;13.50;;;5.80;;
74660;SDS011;63191;39.566;2.654;2023-04-24T03:57:20;16.60;;;5.70;;
74660;SDS011;63191;39.566;2.654;2023-04-24T03:59:47;15.10;;;6.30;;
74660;SDS011;63191;39.566;2.654;2023-04-24T04:02:13;14.70;;;6.50;;
74660;SDS011;63191;39.566;2.654;2023-04-24T04:04:38;16.50;;;6.00;;
74660;SDS011;63191;39.566;2.654;2023-04-24T04:07:04;16.10;;;5.90;;
74660;SDS011;63191;39.566;2.654;2023-04-24T04:09:30;13.60;;;5.60;;
74660;SDS011;63191;39.566;2.654;2023-04-24T04:11:57;15.90;;;6.00;;
74660;SDS011;63191;39.566;2.654;2023-04-24T04:14:23;14.70;;;5.70;;
74660;SDS011;63191;39.566;2.654;2023-04-24T04:16:49;14.50;;;5.60;;
74660;SDS011;63191;39.566;2.654;2023-04-24T04:19:15;11.50;;;5.60;;
74660;SDS011;63191;39.566;2.654;2023-04-24T04:21:41;13.50;;;6.50;;
74660;SDS011;63191;39.566;2.654;2023-04-24T04:24:07;15.70;;;6.70;;
74660;SDS011;63191;39.566;2.654;2023-04-24T04:26:33;14.20;;;6.00;;
74660;SDS011;63191;39.566;2.654;2023-04-24T04:28:59;13.70;;;6.40;;
74660;SDS011;63191;39.566;2.654;2023-04-24T04:31:29;13.20;;;6.00;;
74660;SDS011;63191;39.566;2.654;2023-04-24T04:33:55;15.40;;;6.60;;
74660;SDS011;63191;39.566;2.654;2023-04-24T04:36:21;13.90;;;6.80;;
74660;SDS011;63191;39.566;2.654;2023-04-24T04:38:49;13.30;;;6.40;;
74660;SDS011;63191;39.566;2.654;2023-04-24T04:41:15;15.80;;;6.90;;
74660;SDS011;63191;39.566;2.654;2023-04-24T04:43:42;15.90;;;7.70;;
74660;SDS011;63191;39.566;2.654;2023-04-24T04:46:07;19.80;;;6.90;;
74660;SDS011;63191;39.566;2.654;2023-04-24T04:48:35;14.00;;;6.90;;
74660;SDS011;63191;39.566;2.654;2023-04-24T04:51:01;17.00;;;7.10;;
74660;SDS011;63191;39.566;2.654;2023-04-24T04:53:27;15.20;;;6.60;;
74660;SDS011;63191;39.566;2.654;2023-04-24T04:55:53;11.90;;;6.40;;
74660;SDS011;63191;39.566;2.654;2023-04-24T04:58:19;16.30;;;6.10;;
74660;SDS011;63191;39.566;2.654;2023-04-24T05:00:45;15.90;;;6.70;;
74660;SDS011;63191;39.566;2.654;2023-04-24T05:03:12;15.50;;;6.20;;
74660;SDS011;63191;39.566;2.654;2023-04-24T05:05:38;13.40;;;6.20;;
74660;SDS011;63191;39.566;2.654;2023-04-24T05:08:07;15.60;;;5.90;;
74660;SDS011;63191;39.566;2.654;2023-04-24T05:10:33;16.20;;;5.70;;
74660;SDS011;63191;39.566;2.654;2023-04-24T05:12:59;10.80;;;5.10;;
74660;SDS011;63191;39.566;2.654;2023-04-24T05:15:25;16.40;;;5.80;;
74660;SDS011;63191;39.566;2.654;2023-04-24T05:17:51;13.70;;;5.10;;
74660;SDS011;63191;39.566;2.654;2023-04-24T05:20:18;10.30;;;4.60;;
74660;SDS011;63191;39.566;2.654;2023-04-24T05:22:46;14.00;;;5.20;;
74660;SDS011;63191;39.566;2.654;2023-04-24T05:25:12;10.20;;;4.70;;
74660;SDS011;63191;39.566;2.654;2023-04-24T05:27:38;11.20;;;5.30;;
74660;SDS011;63191;39.566;2.654;2023-04-24T05:30:05;12.80;;;4.90;;
74660;SDS011;63191;39.566;2.654;2023-04-24T05:32:31;9.90;;;4.60;;
74660;SDS011;63191;39.566;2.654;2023-04-24T05:34:57;13.60;;;5.50;;
74660;SDS011;63191;39.566;2.654;2023-04-24T05:37:23;12.50;;;4.50;;
74660;SDS011;63191;39.566;2.654;2023-04-24T05:39:50;10.60;;;4.50;;
74660;SDS011;63191;39.566;2.654;2023-04-24T05:42:16;11.20;;;4.90;;
74660;SDS011;63191;39.566;2.654;2023-04-24T05:44:41;12.40;;;4.60;;
74660;SDS011;63191;39.566;2.654;2023-04-24T05:47:07;9.50;;;4.30;;
74660;SDS011;63191;39.566;2.654;2023-04-24T05:49:34;12.90;;;5.10;;
74660;SDS011;63191;39.566;2.654;2023-04-24T05:52:00;9.60;;;3.70;;
74660;SDS011;63191;39.566;2.654;2023-04-24T05:54:29;12.50;;;4.40;;
74660;SDS011;63191;39.566;2.654;2023-04-24T05:56:55;10.90;;;4.40;;
74660;SDS011;63191;39.566;2.654;2023-04-24T05:59:22;12.70;;;4.80;;
74660;SDS011;63191;39.566;2.654;2023-04-24T06:01:55;14.40;;;4.80;;
74660;SDS011;63191;39.566;2.654;2023-04-24T06:04:21;13.20;;;4.20;;
74660;SDS011;63191;39.566;2.654;2023-04-24T06:06:49;10.90;;;4.40;;
74660;SDS011;63191;39.566;2.654;2023-04-24T06:09:23;11.50;;;4.80;;
74660;SDS011;63191;39.566;2.654;2023-04-24T06:11:51;10.20;;;4.60;;
74660;SDS011;63191;39.566;2.654;2023-04-24T06:14:20;13.10;;;5.20;;
74660;SDS011;63191;39.566;2.654;2023-04-24T06:16:46;9.50;;;4.30;;
74660;SDS011;63191;39.566;2.654;2023-04-24T06:19:12;9.80;;;4.70;;
74660;SDS011;63191;39.566;2.654;2023-04-24T06:21:38;10.40;;;5.00;;
74660;SDS011;63191;39.566;2.654;2023-04-24T06:24:03;10.60;;;5.30;;
74660;SDS011;63191;39.566;2.654;2023-04-24T06:26:32;11.00;;;4.80;;
74660;SDS011;63191;39.566;2.654;2023-04-24T06:28:58;12.00;;;5.00;;
74660;SDS011;63191;39.566;2.654;2023-04-24T06:31:25;11.60;;;4.70;;
74660;SDS011;63191;39.566;2.654;2023-04-24T06:33:51;9.00;;;4.60;;
74660;SDS011;63191;39.566;2.654;2023-04-24T06:36:17;10.40;;;5.50;;
74660;SDS011;63191;39.566;2.654;2023-04-24T06:38:42;9.80;;;5.60;;
74660;SDS011;63191;39.566;2.654;2023-04-24T06:41:09;11.40;;;5.40;;
74660;SDS011;63191;39.566;2.654;2023-04-24T06:43:35;10.40;;;5.90;;
74660;SDS011;63191;39.566;2.654;2023-04-24T06:46:01;10.00;;;6.10;;
74660;SDS011;63191;39.566;2.654;2023-04-24T06:48:28;12.00;;;6.10;;
74660;SDS011;63191;39.566;2.654;2023-04-24T07:09:25;12.30;;;5.10;;
74660;SDS011;63191;39.566;2.654;2023-04-24T07:14:39;13.00;;;4.90;;
74660;SDS011;63191;39.566;2.654;2023-04-24T07:17:07;12.70;;;6.10;;
74660;SDS011;63191;39.566;2.654;2023-04-24T07:19:42;12.50;;;6.20;;
74660;SDS011;63191;39.566;2.654;2023-04-24T07:22:08;11.30;;;6.00;;
74660;SDS011;63191;39.566;2.654;2023-04-24T07:24:36;15.20;;;5.70;;
74660;SDS011;63191;39.566;2.654;2023-04-24T07:27:05;13.50;;;5.90;;
74660;SDS011;63191;39.566;2.654;2023-04-24T07:29:31;14.40;;;5.70;;
74660;SDS011;63191;39.566;2.654;2023-04-24T07:31:57;13.60;;;7.00;;
74660;SDS011;63191;39.566;2.654;2023-04-24T07:34:23;13.80;;;6.50;;
74660;SDS011;63191;39.566;2.654;2023-04-24T07:36:48;12.80;;;6.20;;
74660;SDS011;63191;39.566;2.654;2023-04-24T07:39:14;15.60;;;7.20;;
74660;SDS011;63191;39.566;2.654;2023-04-24T07:41:40;13.10;;;7.40;;
74660;SDS011;63191;39.566;2.654;2023-04-24T07:44:06;13.10;;;6.60;;
74660;SDS011;63191;39.566;2.654;2023-04-24T07:46:32;11.80;;;5.30;;
74660;SDS011;63191;39.566;2.654;2023-04-24T07:48:58;12.00;;;6.00;;
74660;SDS011;63191;39.566;2.654;2023-04-24T07:51:25;10.30;;;4.40;;
74660;SDS011;63191;39.566;2.654;2023-04-24T07:53:53;12.30;;;4.70;;
74660;SDS011;63191;39.566;2.654;2023-04-24T07:56:20;12.30;;;5.70;;
74660;SDS011;63191;39.566;2.654;2023-04-24T07:58:46;12.60;;;5.00;;
74660;SDS011;63191;39.566;2.654;2023-04-24T08:01:12;9.10;;;3.80;;
74660;SDS011;63191;39.566;2.654;2023-04-24T08:03:38;14.30;;;6.70;;
74660;SDS011;63191;39.566;2.654;2023-04-24T08:06:13;13.90;;;4.70;;
74660;SDS011;63191;39.566;2.654;2023-04-24T08:08:40;10.80;;;3.60;;
74660;SDS011;63191;39.566;2.654;2023-04-24T08:11:06;13.40;;;5.10;;
74660;SDS011;63191;39.566;2.654;2023-04-24T08:13:32;8.90;;;3.20;;
74660;SDS011;63191;39.566;2.654;2023-04-24T08:15:58;10.30;;;3.30;;
74660;SDS011;63191;39.566;2.654;2023-04-24T08:18:23;10.70;;;3.80;;
74660;SDS011;63191;39.566;2.654;2023-04-24T08:20:49;10.70;;;3.80;;
74660;SDS011;63191;39.566;2.654;2023-04-24T08:23:15;10.80;;;3.10;;
74660;SDS011;63191;39.566;2.654;2023-04-24T08:25:40;11.00;;;4.00;;
74660;SDS011;63191;39.566;2.654;2023-04-24T08:28:08;7.50;;;2.80;;
74660;SDS011;63191;39.566;2.654;2023-04-24T08:30:36;7.40;;;3.40;;
74660;SDS011;63191;39.566;2.654;2023-04-24T08:35:34;8.70;;;3.90;;
74660;SDS011;63191;39.566;2.654;2023-04-24T08:40:48;9.10;;;3.20;;
74660;SDS011;63191;39.566;2.654;2023-04-24T08:43:24;7.90;;;2.70;;
74660;SDS011;63191;39.566;2.654;2023-04-24T10:38:57;7.80;;;2.90;;
74660;SDS011;63191;39.566;2.654;2023-04-24T10:44:19;9.70;;;3.30;;
74660;SDS011;63191;39.566;2.654;2023-04-24T10:49:15;7.40;;;2.80;;
74660;SDS011;63191;39.566;2.654;2023-04-24T11:02:56;6.50;;;2.40;;
74660;SDS011;63191;39.566;2.654;2023-04-24T11:06:05;7.80;;;2.80;;
74660;SDS011;63191;39.566;2.654;2023-04-24T11:14:19;7.70;;;2.70;;
74660;SDS011;63191;39.566;2.654;2023-04-24T11:34:56;8.70;;;2.90;;
74660;SDS011;63191;39.566;2.654;2023-04-24T11:43:42;9.40;;;2.30;;
74660;SDS011;63191;39.566;2.654;2023-04-24T11:46:16;6.90;;;2.40;;
74660;SDS011;63191;39.566;2.654;2023-04-24T11:54:27;6.50;;;2.30;;
74660;SDS011;63191;39.566;2.654;2023-04-24T12:37:18;5.70;;;1.80;;
74660;SDS011;63191;39.566;2.654;2023-04-24T12:54:47;7.30;;;2.00;;
74660;SDS011;63191;39.566;2.654;2023-04-24T13:03:59;7.10;;;2.20;;
74660;SDS011;63191;39.566;2.654;2023-04-24T13:23:27;6.10;;;2.60;;
74660;SDS011;63191;39.566;2.654;2023-04-24T13:28:27;6.80;;;3.00;;
74660;SDS011;63191;39.566;2.654;2023-04-24T13:38:30;5.20;;;3.20;;
74660;SDS011;63191;39.566;2.654;2023-04-24T13:49:23;6.20;;;3.10;;
74660;SDS011;63191;39.566;2.654;2023-04-24T14:00:03;6.20;;;2.60;;
74660;SDS011;63191;39.566;2.654;2023-04-24T14:02:40;5.50;;;2.20;;
74660;SDS011;63191;39.566;2.654;2023-04-24T14:10:08;7.30;;;2.50;;
74660;SDS011;63191;39.566;2.654;2023-04-24T14:12:38;7.20;;;2.40;;
74660;SDS011;63191;39.566;2.654;2023-04-24T14:15:05;5.90;;;1.90;;
74660;SDS011;63191;39.566;2.654;2023-04-24T14:17:35;6.60;;;2.20;;
74660;SDS011;63191;39.566;2.654;2023-04-24T14:20:22;6.30;;;2.20;;
74660;SDS011;63191;39.566;2.654;2023-04-24T14:22:51;6.10;;;2.00;;
74660;SDS011;63191;39.566;2.654;2023-04-24T14:25:46;8.50;;;2.20;;
74660;SDS011;63191;39.566;2.654;2023-04-24T14:33:07;6.70;;;2.00;;
74660;SDS011;63191;39.566;2.654;2023-04-24T14:38:49;9.10;;;2.70;;
74660;SDS011;63191;39.566;2.654;2023-04-24T14:41:18;7.70;;;2.50;;
74660;SDS011;63191;39.566;2.654;2023-04-24T14:43:43;8.20;;;2.50;;
74660;SDS011;63191;39.566;2.654;2023-04-24T14:46:10;7.00;;;2.10;;
74660;SDS011;63191;39.566;2.654;2023-04-24T14:48:38;9.40;;;2.70;;
74660;SDS011;63191;39.566;2.654;2023-04-24T14:53:30;8.00;;;2.50;;
74660;SDS011;63191;39.566;2.654;2023-04-24T14:56:04;8.30;;;2.50;;
74660;SDS011;63191;39.566;2.654;2023-04-24T14:58:34;8.80;;;2.60;;
74660;SDS011;63191;39.566;2.654;2023-04-24T15:06:39;7.40;;;2.20;;
74660;SDS011;63191;39.566;2.654;2023-04-24T15:11:39;11.10;;;3.10;;
74660;SDS011;63191;39.566;2.654;2023-04-24T15:14:06;7.80;;;2.50;;
74660;SDS011;63191;39.566;2.654;2023-04-24T15:19:19;8.60;;;2.70;;
74660;SDS011;63191;39.566;2.654;2023-04-24T15:21:47;10.50;;;2.50;;
74660;SDS011;63191;39.566;2.654;2023-04-24T15:24:13;9.70;;;3.10;;
74660;SDS011;63191;39.566;2.654;2023-04-24T15:26:39;8.00;;;2.60;;
74660;SDS011;63191;39.566;2.654;2023-04-24T15:29:06;7.80;;;2.70;;
74660;SDS011;63191;39.566;2.654;2023-04-24T15:31:46;7.10;;;2.70;;
74660;SDS011;63191;39.566;2.654;2023-04-24T15:34:14;10.00;;;2.80;;
74660;SDS011;63191;39.566;2.654;2023-04-24T15:36:40;7.20;;;2.60;;
74660;SDS011;63191;39.566;2.654;2023-04-24T15:39:06;10.20;;;2.80;;
74660;SDS011;63191;39.566;2.654;2023-04-24T15:41:36;8.40;;;2.80;;
74660;SDS011;63191;39.566;2.654;2023-04-24T15:46:47;5.70;;;2.10;;
74660;SDS011;63191;39.566;2.654;2023-04-24T15:49:13;7.20;;;2.50;;
74660;SDS011;63191;39.566;2.654;2023-04-24T15:54:04;9.10;;;3.00;;
74660;SDS011;63191;39.566;2.654;2023-04-24T15:56:41;10.50;;;2.60;;
74660;SDS011;63191;39.566;2.654;2023-04-24T16:04:07;10.80;;;3.40;;
74660;SDS011;63191;39.566;2.654;2023-04-24T16:06:40;9.10;;;2.70;;
74660;SDS011;63191;39.566;2.654;2023-04-24T16:09:07;9.60;;;3.00;;
74660;SDS011;63191;39.566;2.654;2023-04-24T16:13:59;7.80;;;2.40;;
74660;SDS011;63191;39.566;2.654;2023-04-24T16:16:25;9.10;;;2.70;;
74660;SDS011;63191;39.566;2.654;2023-04-24T16:18:52;11.10;;;3.20;;
74660;SDS011;63191;39.566;2.654;2023-04-24T16:21:19;8.40;;;2.90;;
74660;SDS011;63191;39.566;2.654;2023-04-24T16:23:45;8.20;;;3.00;;
74660;SDS011;63191;39.566;2.654;2023-04-24T16:26:11;9.40;;;2.80;;
74660;SDS011;63191;39.566;2.654;2023-04-24T16:33:36;9.30;;;2.90;;
74660;SDS011;63191;39.566;2.654;2023-04-24T16:36:06;9.10;;;3.00;;
74660;SDS011;63191;39.566;2.654;2023-04-24T16:38:42;10.50;;;2.90;;
74660;SDS011;63191;39.566;2.654;2023-04-24T16:44:29;6.10;;;2.10;;
74660;SDS011;63191;39.566;2.654;2023-04-24T16:49:40;8.70;;;2.60;;
74660;SDS011;63191;39.566;2.654;2023-04-24T16:58:47;10.40;;;2.40;;
74660;SDS011;63191;39.566;2.654;2023-04-24T17:13:18;8.20;;;2.70;;
74660;SDS011;63191;39.566;2.654;2023-04-24T17:16:40;7.80;;;2.40;;
74660;SDS011;63191;39.566;2.654;2023-04-24T17:25:08;6.60;;;2.60;;
74660;SDS011;63191;39.566;2.654;2023-04-24T17:31:08;7.20;;;2.20;;
74660;SDS011;63191;39.566;2.654;2023-04-24T17:34:07;10.40;;;3.20;;
74660;SDS011;63191;39.566;2.654;2023-04-24T17:36:35;9.20;;;2.80;;
74660;SDS011;63191;39.566;2.654;2023-04-24T17:42:13;8.50;;;2.70;;
74660;SDS011;63191;39.566;2.654;2023-04-24T17:44:43;5.70;;;2.50;;
74660;SDS011;63191;39.566;2.654;2023-04-24T17:53:29;11.60;;;4.20;;
74660;SDS011;63191;39.566;2.654;2023-04-24T17:55:55;6.30;;;2.20;;
74660;SDS011;63191;39.566;2.654;2023-04-24T18:01:55;7.00;;;2.20;;
74660;SDS011;63191;39.566;2.654;2023-04-24T18:04:35;8.80;;;2.90;;
74660;SDS011;63191;39.566;2.654;2023-04-24T18:09:42;8.90;;;2.50;;
74660;SDS011;63191;39.566;2.654;2023-04-24T18:12:14;8.70;;;2.40;;
74660;SDS011;63191;39.566;2.654;2023-04-24T18:19:33;6.30;;;2.40;;
74660;SDS011;63191;39.566;2.654;2023-04-24T18:27:24;10.20;;;2.90;;
74660;SDS011;63191;39.566;2.654;2023-04-24T18:32:18;8.50;;;2.80;;
74660;SDS011;63191;39.566;2.654;2023-04-24T18:34:47;7.00;;;2.40;;
74660;SDS011;63191;39.566;2.654;2023-04-24T18:37:28;9.30;;;2.80;;
74660;SDS011;63191;39.566;2.654;2023-04-24T18:40:11;7.80;;;2.30;;
74660;SDS011;63191;39.566;2.654;2023-04-24T18:42:55;9.40;;;3.20;;
74660;SDS011;63191;39.566;2.654;2023-04-24T18:45:23;11.50;;;3.30;;
74660;SDS011;63191;39.566;2.654;2023-04-24T18:50:35;8.80;;;2.70;;
74660;SDS011;63191;39.566;2.654;2023-04-24T18:53:03;8.30;;;2.90;;
74660;SDS011;63191;39.566;2.654;2023-04-24T18:55:31;7.90;;;2.20;;
74660;SDS011;63191;39.566;2.654;2023-04-24T18:57:58;6.30;;;2.10;;
74660;SDS011;63191;39.566;2.654;2023-04-24T19:03:07;8.30;;;3.30;;
74660;SDS011;63191;39.566;2.654;2023-04-24T19:05:36;8.30;;;2.90;;
74660;SDS011;63191;39.566;2.654;2023-04-24T19:10:32;12.60;;;4.40;;
74660;SDS011;63191;39.566;2.654;2023-04-24T19:12:59;11.40;;;3.30;;
74660;SDS011;63191;39.566;2.654;2023-04-24T19:15:27;6.50;;;3.20;;
74660;SDS011;63191;39.566;2.654;2023-04-24T19:17:54;7.40;;;3.20;;
74660;SDS011;63191;39.566;2.654;2023-04-24T19:20:30;8.30;;;3.20;;
74660;SDS011;63191;39.566;2.654;2023-04-24T19:22:56;8.70;;;3.20;;
74660;SDS011;63191;39.566;2.654;2023-04-24T19:25:45;8.50;;;3.80;;
74660;SDS011;63191;39.566;2.654;2023-04-24T19:28:14;7.30;;;2.80;;
74660;SDS011;63191;39.566;2.654;2023-04-24T19:30:40;8.10;;;2.50;;
74660;SDS011;63191;39.566;2.654;2023-04-24T19:37:01;7.10;;;3.00;;
74660;SDS011;63191;39.566;2.654;2023-04-24T19:39:30;8.80;;;3.60;;
74660;SDS011;63191;39.566;2.654;2023-04-24T19:50:14;8.80;;;3.20;;
74660;SDS011;63191;39.566;2.654;2023-04-24T19:58:21;7.20;;;2.70;;
74660;SDS011;63191;39.566;2.654;2023-04-24T20:03:15;9.10;;;3.30;;
74660;SDS011;63191;39.566;2.654;2023-04-24T20:08:43;8.80;;;3.50;;
74660;SDS011;63191;39.566;2.654;2023-04-24T20:47:16;6.70;;;2.50;;
74660;SDS011;63191;39.566;2.654;2023-04-24T20:53:05;9.00;;;3.00;;
74660;SDS011;63191;39.566;2.654;2023-04-24T20:55:31;6.90;;;2.50;;
74660;SDS011;63191;39.566;2.654;2023-04-24T20:58:06;8.80;;;3.00;;
74660;SDS011;63191;39.566;2.654;2023-04-24T21:00:44;9.70;;;3.10;;
74660;SDS011;63191;39.566;2.654;2023-04-24T21:36:30;8.40;;;2.90;;
74660;SDS011;63191;39.566;2.654;2023-04-24T21:44:20;12.50;;;4.40;;
74660;SDS011;63191;39.566;2.654;2023-04-24T21:49:10;9.50;;;3.20;;
74660;SDS011;63191;39.566;2.654;2023-04-24T21:54:14;11.00;;;3.20;;
74660;SDS011;63191;39.566;2.654;2023-04-24T21:57:04;8.80;;;3.00;;
74660;SDS011;63191;39.566;2.654;2023-04-24T21:59:30;8.60;;;3.10;;
74660;SDS011;63191;39.566;2.654;2023-04-24T22:02:00;8.60;;;2.40;;
74660;SDS011;63191;39.566;2.654;2023-04-24T22:04:26;5.40;;;1.80;;
74660;SDS011;63191;39.566;2.654;2023-04-24T22:06:53;10.60;;;3.40;;
74660;SDS011;63191;39.566;2.654;2023-04-24T22:09:21;7.60;;;2.60;;
74660;SDS011;63191;39.566;2.654;2023-04-24T22:11:56;8.20;;;2.90;;
74660;SDS011;63191;39.566;2.654;2023-04-24T22:14:22;9.40;;;2.90;;
74660;SDS011;63191;39.566;2.654;2023-04-24T22:16:47;7.50;;;2.30;;
74660;SDS011;63191;39.566;2.654;2023-04-24T22:19:17;6.00;;;2.50;;
74660;SDS011;63191;39.566;2.654;2023-04-24T22:22:04;8.10;;;3.00;;
74660;SDS011;63191;39.566;2.654;2023-04-24T22:24:30;8.10;;;2.80;;
74660;SDS011;63191;39.566;2.654;2023-04-24T22:29:29;10.40;;;2.60;;
74660;SDS011;63191;39.566;2.654;2023-04-24T22:32:03;8.80;;;2.50;;
74660;SDS011;63191;39.566;2.654;2023-04-24T22:34:28;7.20;;;2.40;;
74660;SDS011;63191;39.566;2.654;2023-04-24T22:37:06;9.20;;;3.00;;
74660;SDS011;63191;39.566;2.654;2023-04-24T22:39:32;6.80;;;2.40;;
74660;SDS011;63191;39.566;2.654;2023-04-24T22:42:07;8.00;;;2.50;;
74660;SDS011;63191;39.566;2.654;2023-04-24T22:44:33;6.40;;;2.00;;
74660;SDS011;63191;39.566;2.654;2023-04-24T22:46:59;9.60;;;2.40;;
74660;SDS011;63191;39.566;2.654;2023-04-24T22:52:00;8.20;;;2.40;;
74660;SDS011;63191;39.566;2.654;2023-04-24T22:57:09;7.30;;;2.10;;
74660;SDS011;63191;39.566;2.654;2023-04-24T22:59:40;7.10;;;2.50;;
74660;SDS011;63191;39.566;2.654;2023-04-24T23:02:08;7.90;;;2.60;;
74660;SDS011;63191;39.566;2.654;2023-04-24T23:04:34;7.80;;;3.00;;
74660;SDS011;63191;39.566;2.654;2023-04-24T23:07:01;8.20;;;3.10;;
74660;SDS011;63191;39.566;2.654;2023-04-24T23:09:41;8.10;;;2.70;;
74660;SDS011;63191;39.566;2.654;2023-04-24T23:12:07;10.70;;;2.50;;
74660;SDS011;63191;39.566;2.654;2023-04-24T23:14:36;7.10;;;2.30;;
74660;SDS011;63191;39.566;2.654;2023-04-24T23:19:37;10.70;;;2.90;;
74660;SDS011;63191;39.566;2.654;2023-04-24T23:22:03;9.30;;;3.30;;
74660;SDS011;63191;39.566;2.654;2023-04-24T23:24:29;8.50;;;2.80;;
74660;SDS011;63191;39.566;2.654;2023-04-24T23:26:55;9.40;;;3.60;;
74660;SDS011;63191;39.566;2.654;2023-04-24T23:29:21;7.20;;;2.60;;
74660;SDS011;63191;39.566;2.654;2023-04-24T23:31:48;6.80;;;2.50;;
74660;SDS011;63191;39.566;2.654;2023-04-24T23:34:20;8.90;;;2.70;;